Terminal Aerodrome Forecast
Issued by NWS

Home | Current Version | Previous Version | Text Only | Print | Product List | Glossary On
Versions: 1 2 3 4 5 6 7 8 9 10 11 12 13 14 15 16 17 18 19 20 21 22 23 24 25 26 27 28 29 30
000
FTUS42 KGSP 232353 CCA
TAFHKY
TAF COR
KHKY 232353Z 2400/2424 11007KT 3SM SHRA BR OVC003 WS020/14035KT
     FM240200 15009KT 2SM SHRA BR OVC002 WS020/17040KT
     FM240500 19011KT 5SM SHRA OVC002
     FM241300 20009KT P6SM BKN002
     FM241600 22008G20KT P6SM SCT060
     FM241700 22012KT P6SM SCT160=

USA.gov is the U.S. government's official web portal to all federal, state and local government web resources and services.